sensor_id;sensor_type;location;lat;lon;timestamp;pressure;altitude;pressure_sealevel;temperature;humidity
62152;BME280;48139;47.474;19.034;2024-03-29T00:01:01;99491.22;;;8.08;100.00
62152;BME280;48139;47.474;19.034;2024-03-29T00:04:04;99511.19;;;8.09;100.00
62152;BME280;48139;47.474;19.034;2024-03-29T00:07:06;99529.37;;;8.10;100.00
62152;BME280;48139;47.474;19.034;2024-03-29T00:10:08;99534.91;;;8.04;100.00
62152;BME280;48139;47.474;19.034;2024-03-29T00:13:09;99537.25;;;8.09;100.00
62152;BME280;48139;47.474;19.034;2024-03-29T00:16:11;99550.59;;;8.03;100.00
62152;BME280;48139;47.474;19.034;2024-03-29T00:19:13;99557.97;;;7.95;100.00
62152;BME280;48139;47.474;19.034;2024-03-29T00:22:15;99576.16;;;7.96;100.00
62152;BME280;48139;47.474;19.034;2024-03-29T00:25:17;99586.44;;;7.99;100.00
62152;BME280;48139;47.474;19.034;2024-03-29T00:28:19;99598.84;;;7.94;100.00
62152;BME280;48139;47.474;19.034;2024-03-29T00:31:21;99594.47;;;7.95;100.00
62152;BME280;48139;47.474;19.034;2024-03-29T00:34:23;99599.63;;;7.96;100.00
62152;BME280;48139;47.474;19.034;2024-03-29T00:37:25;99604.69;;;7.99;100.00
62152;BME280;48139;47.474;19.034;2024-03-29T00:40:26;99609.91;;;7.99;100.00
62152;BME280;48139;47.474;19.034;2024-03-29T00:43:28;99615.88;;;8.01;100.00
62152;BME280;48139;47.474;19.034;2024-03-29T00:46:30;99609.12;;;7.97;100.00
62152;BME280;48139;47.474;19.034;2024-03-29T00:49:31;99619.63;;;7.96;100.00
62152;BME280;48139;47.474;19.034;2024-03-29T00:52:33;99649.16;;;7.96;100.00
62152;BME280;48139;47.474;19.034;2024-03-29T00:55:35;99646.69;;;7.93;100.00
62152;BME280;48139;47.474;19.034;2024-03-29T00:58:37;99657.34;;;7.89;100.00
62152;BME280;48139;47.474;19.034;2024-03-29T01:01:38;99657.34;;;7.89;100.00
62152;BME280;48139;47.474;19.034;2024-03-29T01:04:41;99659.31;;;7.84;100.00
62152;BME280;48139;47.474;19.034;2024-03-29T01:07:42;99649.59;;;7.87;100.00
62152;BME280;48139;47.474;19.034;2024-03-29T01:10:44;99663.56;;;7.86;100.00
62152;BME280;48139;47.474;19.034;2024-03-29T01:13:46;99652.00;;;7.92;100.00
62152;BME280;48139;47.474;19.034;2024-03-29T01:16:47;99646.97;;;7.87;100.00
62152;BME280;48139;47.474;19.034;2024-03-29T01:19:49;99661.25;;;7.80;100.00
62152;BME280;48139;47.474;19.034;2024-03-29T01:22:51;99670.66;;;7.83;100.00
62152;BME280;48139;47.474;19.034;2024-03-29T01:25:53;99675.94;;;7.81;100.00
62152;BME280;48139;47.474;19.034;2024-03-29T01:28:55;99688.41;;;7.75;100.00
62152;BME280;48139;47.474;19.034;2024-03-29T01:31:56;99697.81;;;7.79;100.00
62152;BME280;48139;47.474;19.034;2024-03-29T01:34:58;99701.91;;;7.65;100.00
62152;BME280;48139;47.474;19.034;2024-03-29T01:38:00;99690.13;;;7.57;100.00
62152;BME280;48139;47.474;19.034;2024-03-29T01:41:02;99690.22;;;7.55;100.00
62152;BME280;48139;47.474;19.034;2024-03-29T01:44:03;99702.44;;;7.53;100.00
62152;BME280;48139;47.474;19.034;2024-03-29T01:47:06;99709.75;;;7.45;100.00
62152;BME280;48139;47.474;19.034;2024-03-29T01:50:08;99715.97;;;7.43;100.00
62152;BME280;48139;47.474;19.034;2024-03-29T01:53:11;99711.03;;;7.37;100.00
62152;BME280;48139;47.474;19.034;2024-03-29T01:56:13;99730.28;;;7.33;100.00
62152;BME280;48139;47.474;19.034;2024-03-29T01:59:17;99741.63;;;7.32;100.00
62152;BME280;48139;47.474;19.034;2024-03-29T02:02:20;99742.09;;;7.41;100.00
62152;BME280;48139;47.474;19.034;2024-03-29T02:05:22;99742.69;;;7.27;100.00
62152;BME280;48139;47.474;19.034;2024-03-29T02:08:24;99752.72;;;7.16;100.00
62152;BME280;48139;47.474;19.034;2024-03-29T02:11:26;99768.34;;;7.16;100.00
62152;BME280;48139;47.474;19.034;2024-03-29T02:14:27;99780.31;;;7.20;100.00
62152;BME280;48139;47.474;19.034;2024-03-29T02:17:29;99785.69;;;7.17;100.00
62152;BME280;48139;47.474;19.034;2024-03-29T02:20:32;99807.41;;;7.16;100.00
62152;BME280;48139;47.474;19.034;2024-03-29T02:23:38;99814.44;;;7.14;100.00
62152;BME280;48139;47.474;19.034;2024-03-29T02:26:41;99834.37;;;7.15;100.00
62152;BME280;48139;47.474;19.034;2024-03-29T02:29:44;99846.69;;;7.12;100.00
62152;BME280;48139;47.474;19.034;2024-03-29T02:32:46;99852.06;;;7.07;100.00
62152;BME280;48139;47.474;19.034;2024-03-29T02:35:48;99863.31;;;7.08;100.00
62152;BME280;48139;47.474;19.034;2024-03-29T02:38:50;99862.75;;;7.21;100.00
62152;BME280;48139;47.474;19.034;2024-03-29T02:41:52;99865.25;;;7.24;100.00
62152;BME280;48139;47.474;19.034;2024-03-29T02:44:53;99872.00;;;7.08;100.00
62152;BME280;48139;47.474;19.034;2024-03-29T02:47:57;99866.72;;;7.10;100.00
62152;BME280;48139;47.474;19.034;2024-03-29T02:50:59;99878.19;;;7.06;100.00
62152;BME280;48139;47.474;19.034;2024-03-29T02:54:01;99884.06;;;7.11;100.00
62152;BME280;48139;47.474;19.034;2024-03-29T02:57:03;99888.16;;;6.95;100.00
62152;BME280;48139;47.474;19.034;2024-03-29T03:00:06;99892.72;;;6.89;100.00
62152;BME280;48139;47.474;19.034;2024-03-29T03:03:08;99893.00;;;6.82;100.00
62152;BME280;48139;47.474;19.034;2024-03-29T03:06:09;99898.44;;;6.76;100.00
62152;BME280;48139;47.474;19.034;2024-03-29T03:09:11;99901.19;;;6.73;100.00
62152;BME280;48139;47.474;19.034;2024-03-29T03:12:31;99899.53;;;6.70;100.00
62152;BME280;48139;47.474;19.034;2024-03-29T03:15:33;99912.38;;;6.75;100.00
62152;BME280;48139;47.474;19.034;2024-03-29T03:18:35;99907.63;;;6.63;100.00
62152;BME280;48139;47.474;19.034;2024-03-29T03:21:37;99912.31;;;6.55;100.00
62152;BME280;48139;47.474;19.034;2024-03-29T03:24:39;99919.59;;;6.68;100.00
62152;BME280;48139;47.474;19.034;2024-03-29T03:27:40;99918.66;;;6.69;100.00
62152;BME280;48139;47.474;19.034;2024-03-29T03:30:42;99921.88;;;6.76;100.00
62152;BME280;48139;47.474;19.034;2024-03-29T03:33:44;99925.97;;;6.60;100.00
62152;BME280;48139;47.474;19.034;2024-03-29T03:36:46;99931.91;;;6.40;100.00
62152;BME280;48139;47.474;19.034;2024-03-29T03:39:48;99926.66;;;6.41;100.00
62152;BME280;48139;47.474;19.034;2024-03-29T03:42:49;99930.25;;;6.37;100.00
62152;BME280;48139;47.474;19.034;2024-03-29T03:45:51;99935.41;;;6.39;100.00
62152;BME280;48139;47.474;19.034;2024-03-29T03:48:53;99936.41;;;6.36;100.00
62152;BME280;48139;47.474;19.034;2024-03-29T03:51:55;99947.47;;;6.41;100.00
62152;BME280;48139;47.474;19.034;2024-03-29T03:54:57;99937.97;;;6.40;100.00
62152;BME280;48139;47.474;19.034;2024-03-29T03:57:58;99934.69;;;6.35;100.00
62152;BME280;48139;47.474;19.034;2024-03-29T04:01:06;99933.53;;;6.19;100.00
62152;BME280;48139;47.474;19.034;2024-03-29T04:04:08;99938.69;;;6.21;100.00
62152;BME280;48139;47.474;19.034;2024-03-29T04:07:10;99946.44;;;6.22;100.00
62152;BME280;48139;47.474;19.034;2024-03-29T04:10:12;99961.78;;;6.30;100.00
62152;BME280;48139;47.474;19.034;2024-03-29T04:13:14;99978.34;;;6.27;100.00
62152;BME280;48139;47.474;19.034;2024-03-29T04:16:16;99991.16;;;6.32;100.00
62152;BME280;48139;47.474;19.034;2024-03-29T04:19:18;99989.53;;;6.29;100.00
62152;BME280;48139;47.474;19.034;2024-03-29T04:22:20;99994.06;;;6.24;100.00
62152;BME280;48139;47.474;19.034;2024-03-29T04:25:21;100000.50;;;6.13;100.00
62152;BME280;48139;47.474;19.034;2024-03-29T04:28:24;100006.13;;;6.00;100.00
62152;BME280;48139;47.474;19.034;2024-03-29T04:31:26;100009.16;;;5.88;100.00
62152;BME280;48139;47.474;19.034;2024-03-29T04:34:28;100011.06;;;5.82;100.00
62152;BME280;48139;47.474;19.034;2024-03-29T04:37:29;100006.63;;;5.85;100.00
62152;BME280;48139;47.474;19.034;2024-03-29T04:40:31;100008.25;;;5.89;100.00
62152;BME280;48139;47.474;19.034;2024-03-29T04:43:33;100012.66;;;5.87;100.00
62152;BME280;48139;47.474;19.034;2024-03-29T04:46:35;100019.63;;;5.85;100.00
62152;BME280;48139;47.474;19.034;2024-03-29T04:49:36;100025.78;;;5.83;100.00
62152;BME280;48139;47.474;19.034;2024-03-29T04:52:38;100028.25;;;5.87;100.00
62152;BME280;48139;47.474;19.034;2024-03-29T04:55:40;100030.94;;;5.84;100.00
62152;BME280;48139;47.474;19.034;2024-03-29T04:58:44;100037.88;;;5.84;100.00
62152;BME280;48139;47.474;19.034;2024-03-29T05:01:47;100046.16;;;5.96;100.00
62152;BME280;48139;47.474;19.034;2024-03-29T05:04:52;100043.59;;;5.95;100.00
62152;BME280;48139;47.474;19.034;2024-03-29T05:07:55;100047.69;;;6.02;100.00
62152;BME280;48139;47.474;19.034;2024-03-29T05:10:56;100041.88;;;6.20;100.00
62152;BME280;48139;47.474;19.034;2024-03-29T05:13:58;100060.50;;;6.33;100.00
62152;BME280;48139;47.474;19.034;2024-03-29T05:17:02;100066.34;;;6.39;100.00
62152;BME280;48139;47.474;19.034;2024-03-29T05:20:04;100064.72;;;6.37;100.00
62152;BME280;48139;47.474;19.034;2024-03-29T05:23:07;100068.69;;;6.47;100.00
62152;BME280;48139;47.474;19.034;2024-03-29T05:26:08;100068.84;;;6.42;100.00
62152;BME280;48139;47.474;19.034;2024-03-29T05:29:10;100073.88;;;6.47;100.00
62152;BME280;48139;47.474;19.034;2024-03-29T05:32:12;100079.03;;;6.73;100.00
62152;BME280;48139;47.474;19.034;2024-03-29T05:35:14;100073.88;;;6.95;100.00
62152;BME280;48139;47.474;19.034;2024-03-29T05:38:16;100082.31;;;7.02;100.00
62152;BME280;48139;47.474;19.034;2024-03-29T05:41:18;100088.19;;;7.07;100.00
62152;BME280;48139;47.474;19.034;2024-03-29T05:44:19;100103.09;;;7.26;100.00
62152;BME280;48139;47.474;19.034;2024-03-29T05:47:21;100102.28;;;7.91;100.00
62152;BME280;48139;47.474;19.034;2024-03-29T05:50:24;100113.12;;;9.61;100.00
62152;BME280;48139;47.474;19.034;2024-03-29T05:53:26;100115.16;;;12.07;100.00
62152;BME280;48139;47.474;19.034;2024-03-29T05:56:28;100122.31;;;13.07;88.98
62152;BME280;48139;47.474;19.034;2024-03-29T05:59:30;100125.34;;;12.57;88.97
62152;BME280;48139;47.474;19.034;2024-03-29T06:02:31;100124.22;;;12.01;95.41
62152;BME280;48139;47.474;19.034;2024-03-29T06:05:33;100119.47;;;12.08;96.29
62152;BME280;48139;47.474;19.034;2024-03-29T06:08:35;100129.59;;;12.30;94.47
62152;BME280;48139;47.474;19.034;2024-03-29T06:11:38;100135.50;;;11.88;96.97
62152;BME280;48139;47.474;19.034;2024-03-29T06:14:40;100132.91;;;11.23;100.00
62152;BME280;48139;47.474;19.034;2024-03-29T06:18:00;100134.84;;;10.52;100.00
62152;BME280;48139;47.474;19.034;2024-03-29T06:21:02;100135.09;;;10.12;100.00
62152;BME280;48139;47.474;19.034;2024-03-29T06:24:10;100130.94;;;9.72;100.00
62152;BME280;48139;47.474;19.034;2024-03-29T06:27:15;100131.44;;;9.61;100.00
62152;BME280;48139;47.474;19.034;2024-03-29T06:30:18;100117.50;;;9.61;100.00
62152;BME280;48139;47.474;19.034;2024-03-29T06:33:20;100126.47;;;9.74;100.00
62152;BME280;48139;47.474;19.034;2024-03-29T06:36:22;100149.47;;;9.49;100.00
62152;BME280;48139;47.474;19.034;2024-03-29T06:39:24;100158.84;;;9.34;100.00
62152;BME280;48139;47.474;19.034;2024-03-29T06:42:27;100164.28;;;9.48;100.00
62152;BME280;48139;47.474;19.034;2024-03-29T06:45:29;100152.09;;;11.24;100.00
62152;BME280;48139;47.474;19.034;2024-03-29T06:48:31;100156.97;;;12.26;100.00
62152;BME280;48139;47.474;19.034;2024-03-29T06:51:33;100152.59;;;12.70;100.00
62152;BME280;48139;47.474;19.034;2024-03-29T06:54:35;100140.69;;;13.78;92.74
62152;BME280;48139;47.474;19.034;2024-03-29T06:57:36;100139.66;;;14.99;83.25
62152;BME280;48139;47.474;19.034;2024-03-29T07:00:38;100139.00;;;16.67;65.13
62152;BME280;48139;47.474;19.034;2024-03-29T07:03:40;100142.88;;;16.85;62.82
62152;BME280;48139;47.474;19.034;2024-03-29T07:06:42;100154.22;;;17.31;60.94
62152;BME280;48139;47.474;19.034;2024-03-29T07:09:46;100153.56;;;16.25;63.88
62152;BME280;48139;47.474;19.034;2024-03-29T07:12:48;100153.50;;;15.28;69.68
62152;BME280;48139;47.474;19.034;2024-03-29T07:15:51;100166.97;;;16.10;63.32
62152;BME280;48139;47.474;19.034;2024-03-29T07:18:54;100171.12;;;17.64;59.82
62152;BME280;48139;47.474;19.034;2024-03-29T07:21:55;100169.00;;;20.57;49.14
62152;BME280;48139;47.474;19.034;2024-03-29T07:24:57;100175.72;;;20.89;45.65
62152;BME280;48139;47.474;19.034;2024-03-29T07:27:58;100180.63;;;21.50;44.19
62152;BME280;48139;47.474;19.034;2024-03-29T07:31:07;100180.91;;;20.52;47.76
62152;BME280;48139;47.474;19.034;2024-03-29T07:34:10;100187.41;;;19.09;48.99
62152;BME280;48139;47.474;19.034;2024-03-29T07:37:12;100196.13;;;17.60;54.61
62152;BME280;48139;47.474;19.034;2024-03-29T07:40:16;100194.81;;;17.99;54.01
62152;BME280;48139;47.474;19.034;2024-03-29T07:43:19;100190.25;;;18.97;52.20
62152;BME280;48139;47.474;19.034;2024-03-29T07:46:20;100186.09;;;20.64;46.32
62152;BME280;48139;47.474;19.034;2024-03-29T07:49:23;100174.25;;;23.56;41.12
62152;BME280;48139;47.474;19.034;2024-03-29T07:52:24;100178.38;;;24.26;36.71
62152;BME280;48139;47.474;19.034;2024-03-29T07:55:26;100187.62;;;22.51;38.78
62152;BME280;48139;47.474;19.034;2024-03-29T07:58:28;100191.28;;;22.32;41.36
62152;BME280;48139;47.474;19.034;2024-03-29T08:01:30;100192.19;;;21.68;42.45
62152;BME280;48139;47.474;19.034;2024-03-29T08:04:32;100188.41;;;21.15;44.08
62152;BME280;48139;47.474;19.034;2024-03-29T08:07:33;100182.13;;;19.70;43.44
62152;BME280;48139;47.474;19.034;2024-03-29T08:10:35;100187.97;;;19.64;46.21
62152;BME280;48139;47.474;19.034;2024-03-29T08:13:38;100202.06;;;19.85;45.23
62152;BME280;48139;47.474;19.034;2024-03-29T08:16:40;100209.00;;;20.17;43.15
62152;BME280;48139;47.474;19.034;2024-03-29T08:19:43;100204.13;;;19.82;42.70
62152;BME280;48139;47.474;19.034;2024-03-29T08:22:45;100196.87;;;20.43;42.81
62152;BME280;48139;47.474;19.034;2024-03-29T08:25:47;100201.69;;;21.44;41.83
62152;BME280;48139;47.474;19.034;2024-03-29T08:28:50;100193.56;;;22.27;39.33
62152;BME280;48139;47.474;19.034;2024-03-29T08:31:51;100202.66;;;21.43;40.06
62152;BME280;48139;47.474;19.034;2024-03-29T08:34:53;100186.59;;;20.19;42.12
62152;BME280;48139;47.474;19.034;2024-03-29T08:37:55;100189.53;;;20.16;42.97
62152;BME280;48139;47.474;19.034;2024-03-29T08:40:57;100193.09;;;20.65;42.74
62152;BME280;48139;47.474;19.034;2024-03-29T08:43:59;100182.87;;;21.55;41.51
62152;BME280;48139;47.474;19.034;2024-03-29T08:47:00;100182.03;;;20.69;41.21
62152;BME280;48139;47.474;19.034;2024-03-29T08:50:02;100178.94;;;21.49;40.28
62152;BME280;48139;47.474;19.034;2024-03-29T08:53:06;100172.47;;;23.39;36.90
62152;BME280;48139;47.474;19.034;2024-03-29T08:56:08;100178.06;;;23.87;33.61
62152;BME280;48139;47.474;19.034;2024-03-29T08:59:09;100175.41;;;25.74;32.84
62152;BME280;48139;47.474;19.034;2024-03-29T09:02:12;100179.66;;;26.61;31.59
62152;BME280;48139;47.474;19.034;2024-03-29T09:05:14;100189.91;;;25.64;32.21
62152;BME280;48139;47.474;19.034;2024-03-29T09:08:17;100181.25;;;23.23;35.55
62152;BME280;48139;47.474;19.034;2024-03-29T09:11:19;100184.41;;;20.34;41.10
62152;BME280;48139;47.474;19.034;2024-03-29T09:14:21;100162.87;;;19.47;42.87
62152;BME280;48139;47.474;19.034;2024-03-29T09:17:23;100161.22;;;18.63;44.25
62152;BME280;48139;47.474;19.034;2024-03-29T09:20:25;100164.97;;;17.63;44.96
62152;BME280;48139;47.474;19.034;2024-03-29T09:23:28;100155.09;;;17.77;46.31
62152;BME280;48139;47.474;19.034;2024-03-29T09:26:30;100161.69;;;17.26;45.62
62152;BME280;48139;47.474;19.034;2024-03-29T09:29:31;100171.94;;;17.53;46.17
62152;BME280;48139;47.474;19.034;2024-03-29T09:32:33;100184.19;;;17.10;48.11
62152;BME280;48139;47.474;19.034;2024-03-29T09:35:36;100180.97;;;17.40;46.18
62152;BME280;48139;47.474;19.034;2024-03-29T09:38:38;100164.47;;;17.81;45.25
62152;BME280;48139;47.474;19.034;2024-03-29T09:41:40;100163.59;;;18.02;45.45
62152;BME280;48139;47.474;19.034;2024-03-29T09:44:47;100152.53;;;17.97;45.05
62152;BME280;48139;47.474;19.034;2024-03-29T09:47:52;100153.28;;;17.55;46.36
62152;BME280;48139;47.474;19.034;2024-03-29T09:50:57;100155.09;;;17.77;45.85
62152;BME280;48139;47.474;19.034;2024-03-29T09:54:00;100145.56;;;17.74;46.54
62152;BME280;48139;47.474;19.034;2024-03-29T09:57:03;100144.03;;;17.71;46.25
62152;BME280;48139;47.474;19.034;2024-03-29T10:00:07;100137.66;;;17.29;48.31
62152;BME280;48139;47.474;19.034;2024-03-29T10:03:09;100131.16;;;16.65;48.13
62152;BME280;48139;47.474;19.034;2024-03-29T10:06:12;100136.41;;;16.54;49.43
62152;BME280;48139;47.474;19.034;2024-03-29T10:09:18;100132.44;;;16.01;51.41
62152;BME280;48139;47.474;19.034;2024-03-29T10:12:20;100128.19;;;16.11;51.28
62152;BME280;48139;47.474;19.034;2024-03-29T10:15:21;100126.53;;;16.56;51.89
62152;BME280;48139;47.474;19.034;2024-03-29T10:18:27;100126.06;;;17.08;53.42
62152;BME280;48139;47.474;19.034;2024-03-29T10:21:29;100109.13;;;17.11;50.96
62152;BME280;48139;47.474;19.034;2024-03-29T10:24:33;100120.53;;;17.45;51.08
62152;BME280;48139;47.474;19.034;2024-03-29T10:27:36;100110.78;;;17.45;50.66
62152;BME280;48139;47.474;19.034;2024-03-29T10:30:38;100100.56;;;17.41;50.63
62152;BME280;48139;47.474;19.034;2024-03-29T10:33:42;100094.91;;;17.67;51.73
62152;BME280;48139;47.474;19.034;2024-03-29T10:36:47;100098.72;;;17.86;48.98
62152;BME280;48139;47.474;19.034;2024-03-29T10:39:50;100102.69;;;18.12;49.58
62152;BME280;48139;47.474;19.034;2024-03-29T10:42:52;100088.84;;;18.40;50.04
62152;BME280;48139;47.474;19.034;2024-03-29T10:45:55;100083.75;;;18.48;48.98
62152;BME280;48139;47.474;19.034;2024-03-29T10:49:00;100087.03;;;18.41;48.25
62152;BME280;48139;47.474;19.034;2024-03-29T10:52:02;100085.59;;;18.16;49.85
62152;BME280;48139;47.474;19.034;2024-03-29T10:55:09;100077.81;;;18.24;50.78
62152;BME280;48139;47.474;19.034;2024-03-29T10:58:12;100076.03;;;17.93;51.14
62152;BME280;48139;47.474;19.034;2024-03-29T11:01:17;100062.06;;;17.91;51.90
62152;BME280;48139;47.474;19.034;2024-03-29T11:04:22;100052.84;;;18.06;53.10
62152;BME280;48139;47.474;19.034;2024-03-29T11:07:30;100046.19;;;18.11;52.12
62152;BME280;48139;47.474;19.034;2024-03-29T11:10:44;100039.56;;;18.17;52.27
62152;BME280;48139;47.474;19.034;2024-03-29T11:14:08;100017.88;;;18.12;53.23
62152;BME280;48139;47.474;19.034;2024-03-29T11:17:11;100030.59;;;17.54;54.82
62152;BME280;48139;47.474;19.034;2024-03-29T11:20:15;100020.41;;;17.82;55.75
62152;BME280;48139;47.474;19.034;2024-03-29T11:23:22;100017.03;;;17.91;55.22
62152;BME280;48139;47.474;19.034;2024-03-29T11:26:24;100009.59;;;18.05;55.92
62152;BME280;48139;47.474;19.034;2024-03-29T11:29:27;99994.84;;;18.12;57.31
62152;BME280;48139;47.474;19.034;2024-03-29T11:32:37;99988.31;;;17.96;57.15
62152;BME280;48139;47.474;19.034;2024-03-29T11:35:40;99981.94;;;18.40;58.54
62152;BME280;48139;47.474;19.034;2024-03-29T11:38:41;99974.28;;;18.26;57.85
62152;BME280;48139;47.474;19.034;2024-03-29T11:41:47;99992.66;;;18.38;58.40
62152;BME280;48139;47.474;19.034;2024-03-29T11:44:49;99981.09;;;18.39;58.11
62152;BME280;48139;47.474;19.034;2024-03-29T11:47:51;99980.81;;;18.63;57.21
62152;BME280;48139;47.474;19.034;2024-03-29T11:50:52;99959.91;;;18.49;58.67
62152;BME280;48139;47.474;19.034;2024-03-29T11:53:55;99981.13;;;18.70;58.87
62152;BME280;48139;47.474;19.034;2024-03-29T11:56:56;99965.81;;;18.83;59.28
62152;BME280;48139;47.474;19.034;2024-03-29T11:59:58;99967.28;;;19.06;58.04
62152;BME280;48139;47.474;19.034;2024-03-29T12:03:01;99966.47;;;19.15;58.17
62152;BME280;48139;47.474;19.034;2024-03-29T12:06:04;99956.56;;;19.17;58.33
62152;BME280;48139;47.474;19.034;2024-03-29T12:09:07;99968.84;;;19.09;56.85
62152;BME280;48139;47.474;19.034;2024-03-29T12:12:10;99958.34;;;19.07;58.83
62152;BME280;48139;47.474;19.034;2024-03-29T12:15:12;99960.63;;;19.21;58.02
62152;BME280;48139;47.474;19.034;2024-03-29T12:18:14;99957.38;;;19.08;57.33
62152;BME280;48139;47.474;19.034;2024-03-29T12:21:17;99954.56;;;19.00;58.01
62152;BME280;48139;47.474;19.034;2024-03-29T12:24:19;99956.66;;;18.97;59.37
62152;BME280;48139;47.474;19.034;2024-03-29T12:27:22;99939.34;;;19.02;58.94
62152;BME280;48139;47.474;19.034;2024-03-29T12:30:26;99936.84;;;19.10;57.72
62152;BME280;48139;47.474;19.034;2024-03-29T12:33:28;99934.22;;;19.29;57.80
62152;BME280;48139;47.474;19.034;2024-03-29T12:36:32;99928.53;;;19.63;55.88
62152;BME280;48139;47.474;19.034;2024-03-29T12:39:34;99930.19;;;19.83;55.87
62152;BME280;48139;47.474;19.034;2024-03-29T12:42:40;99923.19;;;20.01;54.96
62152;BME280;48139;47.474;19.034;2024-03-29T12:45:42;99927.38;;;19.94;54.70
62152;BME280;48139;47.474;19.034;2024-03-29T12:48:44;99924.44;;;19.88;54.64
62152;BME280;48139;47.474;19.034;2024-03-29T12:51:46;99921.09;;;19.76;55.37
62152;BME280;48139;47.474;19.034;2024-03-29T12:54:48;99918.03;;;19.71;56.59
62152;BME280;48139;47.474;19.034;2024-03-29T12:57:50;99916.34;;;19.70;56.74
62152;BME280;48139;47.474;19.034;2024-03-29T13:00:55;99917.19;;;19.51;56.89
62152;BME280;48139;47.474;19.034;2024-03-29T13:03:56;99912.88;;;19.50;57.47
62152;BME280;48139;47.474;19.034;2024-03-29T13:06:58;99919.00;;;19.41;57.65
62152;BME280;48139;47.474;19.034;2024-03-29T13:10:00;99907.09;;;19.45;57.82
62152;BME280;48139;47.474;19.034;2024-03-29T13:13:05;99907.97;;;19.46;57.69
62152;BME280;48139;47.474;19.034;2024-03-29T13:16:07;99902.53;;;19.66;56.62
62152;BME280;48139;47.474;19.034;2024-03-29T13:19:09;99907.84;;;19.66;56.59
62152;BME280;48139;47.474;19.034;2024-03-29T13:22:10;99898.19;;;19.65;56.79
62152;BME280;48139;47.474;19.034;2024-03-29T13:25:12;99895.37;;;19.86;56.45
62152;BME280;48139;47.474;19.034;2024-03-29T13:28:14;99884.13;;;20.02;56.14
62152;BME280;48139;47.474;19.034;2024-03-29T13:31:16;99880.78;;;20.00;56.54
62152;BME280;48139;47.474;19.034;2024-03-29T13:34:18;99886.25;;;19.98;55.76
62152;BME280;48139;47.474;19.034;2024-03-29T13:37:20;99883.88;;;19.95;56.21
62152;BME280;48139;47.474;19.034;2024-03-29T13:40:23;99889.19;;;20.05;56.25
62152;BME280;48139;47.474;19.034;2024-03-29T13:43:26;99885.94;;;20.11;55.63
62152;BME280;48139;47.474;19.034;2024-03-29T13:46:27;99880.22;;;20.43;54.90
62152;BME280;48139;47.474;19.034;2024-03-29T13:49:30;99874.41;;;20.67;54.85
62152;BME280;48139;47.474;19.034;2024-03-29T13:52:34;99870.69;;;20.77;54.05
62152;BME280;48139;47.474;19.034;2024-03-29T13:55:35;99858.16;;;20.87;54.62
62152;BME280;48139;47.474;19.034;2024-03-29T13:58:37;99864.03;;;20.91;54.37
62152;BME280;48139;47.474;19.034;2024-03-29T14:01:39;99856.75;;;20.66;54.61
62152;BME280;48139;47.474;19.034;2024-03-29T14:04:42;99864.37;;;20.51;55.16
62152;BME280;48139;47.474;19.034;2024-03-29T14:07:44;99859.97;;;20.32;56.01
62152;BME280;48139;47.474;19.034;2024-03-29T14:10:46;99855.66;;;20.22;57.05
62152;BME280;48139;47.474;19.034;2024-03-29T14:13:50;99850.03;;;20.25;56.83
62152;BME280;48139;47.474;19.034;2024-03-29T14:16:57;99854.31;;;20.08;57.66
62152;BME280;48139;47.474;19.034;2024-03-29T14:19:59;99861.47;;;19.98;58.39
62152;BME280;48139;47.474;19.034;2024-03-29T14:23:02;99856.31;;;19.96;60.11
62152;BME280;48139;47.474;19.034;2024-03-29T14:26:07;99865.25;;;19.95;59.83
62152;BME280;48139;47.474;19.034;2024-03-29T14:29:09;99858.72;;;20.27;59.87
62152;BME280;48139;47.474;19.034;2024-03-29T14:32:13;99851.03;;;20.61;58.64
62152;BME280;48139;47.474;19.034;2024-03-29T14:35:15;99853.97;;;20.85;56.05
62152;BME280;48139;47.474;19.034;2024-03-29T14:38:17;99844.31;;;21.02;55.00
62152;BME280;48139;47.474;19.034;2024-03-29T14:41:20;99847.81;;;21.02;54.32
62152;BME280;48139;47.474;19.034;2024-03-29T14:44:23;99835.31;;;21.30;54.28
62152;BME280;48139;47.474;19.034;2024-03-29T14:47:25;99825.91;;;21.44;51.58
62152;BME280;48139;47.474;19.034;2024-03-29T14:50:26;99827.81;;;21.51;51.81
62152;BME280;48139;47.474;19.034;2024-03-29T14:53:29;99830.84;;;21.56;51.70
62152;BME280;48139;47.474;19.034;2024-03-29T14:56:32;99825.91;;;21.44;52.00
62152;BME280;48139;47.474;19.034;2024-03-29T14:59:33;99826.84;;;21.35;52.82
62152;BME280;48139;47.474;19.034;2024-03-29T15:02:35;99826.69;;;21.18;53.53
62152;BME280;48139;47.474;19.034;2024-03-29T15:05:38;99821.47;;;20.99;53.86
62152;BME280;48139;47.474;19.034;2024-03-29T15:08:39;99827.50;;;20.83;54.63
62152;BME280;48139;47.474;19.034;2024-03-29T15:11:41;99818.87;;;20.72;55.02
62152;BME280;48139;47.474;19.034;2024-03-29T15:14:43;99815.38;;;20.71;55.74
62152;BME280;48139;47.474;19.034;2024-03-29T15:17:45;99817.06;;;20.72;55.70
62152;BME280;48139;47.474;19.034;2024-03-29T15:20:57;99821.69;;;20.70;56.06
62152;BME280;48139;47.474;19.034;2024-03-29T15:24:00;99807.94;;;20.75;55.21
62152;BME280;48139;47.474;19.034;2024-03-29T15:27:01;99814.31;;;20.64;56.04
62152;BME280;48139;47.474;19.034;2024-03-29T15:30:05;99817.47;;;20.50;56.40
62152;BME280;48139;47.474;19.034;2024-03-29T15:33:06;99814.56;;;20.43;57.12
62152;BME280;48139;47.474;19.034;2024-03-29T15:36:09;99820.50;;;20.55;57.19
62152;BME280;48139;47.474;19.034;2024-03-29T15:39:10;99812.38;;;20.84;55.69
62152;BME280;48139;47.474;19.034;2024-03-29T15:42:16;99814.94;;;20.93;55.36
62152;BME280;48139;47.474;19.034;2024-03-29T15:45:18;99804.47;;;20.92;55.90
62152;BME280;48139;47.474;19.034;2024-03-29T15:48:20;99805.06;;;20.86;56.45